Navios*hios — SXJH — position and weather

sailwx.info

Track history (hours):
 
Tides and Currents Weather Stations Pressure Air Temp Water Temp Dewpoint Dewpoint Depression Visibility Wind Speed Wind Dir Waves Ship Positions

Navios*hios

Last reported at 2016-Sep-29 21:30 UTC. Time now 2016-Sep-30 20:18 UTC.
Position N 36°48' W 009°34'.

Length 120 m; draft 12.5 m.

Type: Cargo ship. MMSI: 240149000.

Date/timePositionNaut miles runAvg speedWind from/ knotsBaromVisibWave heightAir tempDewpointWater temp
2016-Sep-29 21:30N 36°48' W 009°34'1110.6
2016-Sep-29 20:29N 36°58' W 009°37'1010.7
2016-Sep-29 19:33N 37°08' W 009°40'3110.4
2016-Sep-29 16:33N 37°39' W 009°48'1010.5
2016-Sep-29 15:33N 37°49' W 009°51'1110.6
2016-Sep-29 14:33N 37°59' W 009°54'1010.5
2016-Sep-29 13:33N 38°10' W 009°57'5410.9
2016-Sep-29 08:33N 39°03' W 010°06'1010.0
2016-Sep-29 07:33N 39°13' W 010°06'20110.4
2016-Sep-28 12:17N 42°34' W 010°06'431 9.2
2016-Sep-26 13:33N 48°60' W 005°30'17 7.7
2016-Sep-26 11:22N 49°08' W 005°08'78 8.9
2016-Sep-26 02:33N 49°50' W 003°26'8 8.2
2016-Sep-26 01:33N 49°55' W 003°16'9 8.7
2016-Sep-26 00:33N 50°01' W 003°06'31 9.9
2016-Sep-25 21:27N 50°22' W 002°32'14 2.9
2016-Sep-25 16:31N 50°36' W 002°24'0 0.0
2016-Sep-25 15:13N 50°36' W 002°24'0 0.0
2016-Sep-25 14:19N 50°36' W 002°24'2 1.1
2016-Sep-25 12:33N 50°34' W 002°21'99 8.2
2016-Sep-25 00:33N 50°32' E 000°14'5010.1
2016-Sep-24 19:33N 50°58' E 001°22'8 8.4
2016-Sep-24 18:33N 51°04' E 001°31'8 7.8
2016-Sep-24 17:33N 51°10' E 001°39'8 8.5
2016-Sep-24 16:33N 51°16' E 001°47'2110.5
2016-Sep-24 14:33N 51°34' E 002°06'2211.1
2016-Sep-24 12:33N 51°51' E 002°28'29 9.5
2016-Sep-24 09:32N 52°12' E 003°00'360 9.7
2016-Sep-22 20:33N 57°21' E 008°20'79 9.8
2016-Sep-22 12:27N 57°48' E 010°38'40 5.0
2016-Sep-22 04:33N 57°21' E 011°31'1111.4
2016-Sep-22 03:33N 57°10' E 011°38'3110.3
2016-Sep-22 00:33N 56°39' E 011°47'79 9.8
2016-Sep-21 16:28N 55°25' E 010°59'54 7.8
2016-Sep-21 09:33N 54°33' E 011°22'1110.5
2016-Sep-21 08:33N 54°29' E 011°39'24 8.1
2016-Sep-21 05:33N 54°37' E 012°18'15 7.5
2016-Sep-21 03:33N 54°46' E 012°38'1010.1
2016-Sep-21 02:33N 54°50' E 012°54'9210.2
2016-Sep-20 17:34N 55°37' E 015°12'15410.2
2016-Sep-20 02:33N 55°50' E 019°44'  
Track history (hours):
 
Tides and Currents Weather Stations Pressure Air Temp Water Temp Dewpoint Dewpoint Depression Visibility Wind Speed Wind Dir Waves Ship Positions

Navios*hios

Last reported at 2016-Sep-29 21:30 UTC. Time now 2016-Sep-30 20:18 UTC.
Position N 36°48' W 009°34'.

Length 120 m; draft 12.5 m.

Type: Cargo ship. MMSI: 240149000.

Date/timePositionNaut miles runAvg speedWind from/ knotsBaromVisibWave heightAir tempDewpointWater temp
2016-Sep-29 21:30N 36°48' W 009°34'1110.6
2016-Sep-29 20:29N 36°58' W 009°37'1010.7
2016-Sep-29 19:33N 37°08' W 009°40'3110.4
2016-Sep-29 16:33N 37°39' W 009°48'1010.5
2016-Sep-29 15:33N 37°49' W 009°51'1110.6
2016-Sep-29 14:33N 37°59' W 009°54'1010.5
2016-Sep-29 13:33N 38°10' W 009°57'5410.9
2016-Sep-29 08:33N 39°03' W 010°06'1010.0
2016-Sep-29 07:33N 39°13' W 010°06'20110.4
2016-Sep-28 12:17N 42°34' W 010°06'431 9.2
2016-Sep-26 13:33N 48°60' W 005°30'17 7.7
2016-Sep-26 11:22N 49°08' W 005°08'78 8.9
2016-Sep-26 02:33N 49°50' W 003°26'8 8.2
2016-Sep-26 01:33N 49°55' W 003°16'9 8.7
2016-Sep-26 00:33N 50°01' W 003°06'31 9.9
2016-Sep-25 21:27N 50°22' W 002°32'14 2.9
2016-Sep-25 16:31N 50°36' W 002°24'0 0.0
2016-Sep-25 15:13N 50°36' W 002°24'0 0.0
2016-Sep-25 14:19N 50°36' W 002°24'2 1.1
2016-Sep-25 12:33N 50°34' W 002°21'99 8.2
2016-Sep-25 00:33N 50°32' E 000°14'5010.1
2016-Sep-24 19:33N 50°58' E 001°22'8 8.4
2016-Sep-24 18:33N 51°04' E 001°31'8 7.8
2016-Sep-24 17:33N 51°10' E 001°39'8 8.5
2016-Sep-24 16:33N 51°16' E 001°47'2110.5
2016-Sep-24 14:33N 51°34' E 002°06'2211.1
2016-Sep-24 12:33N 51°51' E 002°28'29 9.5
2016-Sep-24 09:32N 52°12' E 003°00'360 9.7
2016-Sep-22 20:33N 57°21' E 008°20'79 9.8
2016-Sep-22 12:27N 57°48' E 010°38'40 5.0
2016-Sep-22 04:33N 57°21' E 011°31'1111.4
2016-Sep-22 03:33N 57°10' E 011°38'3110.3
2016-Sep-22 00:33N 56°39' E 011°47'79 9.8
2016-Sep-21 16:28N 55°25' E 010°59'54 7.8
2016-Sep-21 09:33N 54°33' E 011°22'1110.5
2016-Sep-21 08:33N 54°29' E 011°39'24 8.1
2016-Sep-21 05:33N 54°37' E 012°18'15 7.5
2016-Sep-21 03:33N 54°46' E 012°38'1010.1
2016-Sep-21 02:33N 54°50' E 012°54'9210.2
2016-Sep-20 17:34N 55°37' E 015°12'15410.2
2016-Sep-20 02:33N 55°50' E 019°44'  

Dump ship's entire track history